MXL weather

General Rodolfo Sánchez Taboada International Airport
Mexicali, Baja California, Mexico

Public forecast

Using degrees Celsius for public forecast. Weather courtesy of forecast.io.

METAR (pilot weather report)

Retrieved 2019/06/26 02:53 UTC (27 minutes ago):

MMML 260253Z 15009KT 10SM FEW200 30/09 A2970 RMK SLP058 52007 910 8/002

TAF (pilot weather forecast)

Forecast is more than 6 hours old.

Retrieved 2019/06/25 18:06 UTC (9 hours ago):

TAF MMML 251605Z 2518/2618 13010KT P6SM SCT220 BECMG 2520/2521 13015KT BKN220 FM260200 13008KT P6SM BKN220 BECMG 2605/2606 13005KT FM261600 09008KT P6SM SCT220